Main page
METAR-TAF:

METAR-TAF

Airports :

Tehran, Iran

Mehrabad International Airport

latitude: 35-41N, longitude: 051-21E, elevation: 1204 m

Current weather observation

The report was made 19 minutes ago, at 20:00 UTC
Calm wind
Temperature 4°C
Humidity 52%
Pressure 1024 hPa
Visibility: 4000 m
haze

METAR: OIII 182000Z 00000KT 4000 HZ NSC 04/M05 Q1023 A3024 NOSIG

Time: 23:49 (20:19 UTC)

Forecast

The report was made 2 hours and 49 minutes ago, at 17:30 UTC
Forecast valid from 18 at 18 UTC to 19 at 24 UTC
Wind 6 kt from the Southwest
Visibility: 5000 m
haze
Temporary
from 19 at 04 UTC to 19 at 10 UTC
Visibility: 2000 m
haze
Temporary
from 19 at 09 UTC to 19 at 12 UTC
Wind 10 kt from the West
Visibility: 7000 m

TAF: OIII 181730Z 1818/1924 22003MPS 5000 HZ NSC TEMPO 1904/1910 2000 HZ TEMPO 1909/1912 27005MPS 7000

Weather observations and forecasts of more than 4000 airports (METAR and TAF reports).

The available stations are represented by yellow and red dots on the map.

Hover mouse over dot to see the name of the station.

Then click to see weather observations and forecasts.

To change the map : click on the green buttons with a black cross to zoom in, on the green button with a dash to zoom out, or on the green arrows for adjacent maps.


METAR-TAF: